createdAt,value
2022-10-21T00:41:40.910Z,14.18
2022-10-21T00:44:13.864Z,14.73
2022-10-21T00:46:47.054Z,14.38
2022-10-21T00:49:19.978Z,14.75
2022-10-21T00:51:53.164Z,14.80
2022-10-21T00:54:25.582Z,14.02
2022-10-21T00:56:58.237Z,13.48
2022-10-21T01:01:57.337Z,13.80
2022-10-21T01:04:26.729Z,13.98
2022-10-21T01:06:56.045Z,13.90
2022-10-21T01:09:26.356Z,15.00
2022-10-21T01:11:56.735Z,13.27
2022-10-21T02:02:03.858Z,9.02
2022-10-21T02:12:41.539Z,11.40
2022-10-21T02:15:11.967Z,10.38
2022-10-21T02:17:47.391Z,11.15
2022-10-21T02:20:18.177Z,10.70
2022-10-21T02:22:49.881Z,11.65
2022-10-21T02:25:22.024Z,11.35
2022-10-21T02:27:51.608Z,11.05
2022-10-21T02:30:21.168Z,10.10
2022-10-21T02:32:59.096Z,10.48
2022-10-21T02:35:36.327Z,10.77
2022-10-21T02:38:12.515Z,10.25
2022-10-21T02:40:47.116Z,9.13
2022-10-21T02:43:20.910Z,9.18
2022-10-21T02:45:50.802Z,9.68
2022-10-21T02:48:21.227Z,9.60
2022-10-21T02:50:50.519Z,9.50
2022-10-21T02:53:20.743Z,9.38
2022-10-21T02:55:49.766Z,7.93
2022-10-21T02:58:21.799Z,8.85
2022-10-21T03:00:51.822Z,9.43
2022-10-21T03:03:22.823Z,8.27
2022-10-21T03:05:51.793Z,7.95
2022-10-21T03:08:20.517Z,7.25
2022-10-21T03:10:53.197Z,7.45
2022-10-21T03:13:22.496Z,6.43
2022-10-21T03:15:52.008Z,6.72
2022-10-21T03:18:22.717Z,6.97
2022-10-21T03:20:54.450Z,6.65
2022-10-21T03:23:25.938Z,7.07
2022-10-21T03:25:54.947Z,8.30
2022-10-21T03:28:24.845Z,8.15
2022-10-21T03:30:53.858Z,7.63
2022-10-21T03:33:25.472Z,7.18
2022-10-21T03:35:54.123Z,6.83
2022-10-21T03:38:23.042Z,6.60
2022-10-21T03:40:52.413Z,6.05
2022-10-21T03:43:21.974Z,6.53
2022-10-21T03:45:52.628Z,5.25
2022-10-21T04:20:52.615Z,5.78
2022-10-21T04:23:23.163Z,5.93
2022-10-21T04:25:56.002Z,5.10
2022-10-21T04:28:28.798Z,5.80
2022-10-21T04:30:58.257Z,5.80
2022-10-21T04:33:27.613Z,6.65
2022-10-21T04:41:56.479Z,7.10
2022-10-21T04:44:25.616Z,6.57
2022-10-21T04:49:42.295Z,5.80
2022-10-21T04:52:13.715Z,5.88
2022-10-21T05:35:45.227Z,9.65
2022-10-21T05:38:12.908Z,8.45
2022-10-21T10:45:54.605Z,3.40
2022-10-21T11:13:52.680Z,2.75
2022-10-21T11:20:02.641Z,3.55
2022-10-21T11:22:43.655Z,2.58
2022-10-21T11:25:26.285Z,2.53
2022-10-21T13:21:24.732Z,0.82
2022-10-21T15:16:21.351Z,0.45
2022-10-21T16:59:19.118Z,4.13
2022-10-21T17:01:47.278Z,3.38
2022-10-21T17:04:16.150Z,1.83
2022-10-21T17:06:44.605Z,4.45
2022-10-21T17:09:12.978Z,2.80
2022-10-21T17:11:42.773Z,3.00
2022-10-21T17:14:16.786Z,3.28
2022-10-21T17:16:46.916Z,4.40
2022-10-21T17:19:15.423Z,25.65
2022-10-21T17:21:45.419Z,7.47
2022-10-21T17:24:15.615Z,4.47
2022-10-21T17:26:43.793Z,3.33
